sensor_id;sensor_type;location;lat;lon;timestamp;pressure;altitude;pressure_sealevel;temperature
15144;BMP180;7672;50.834;6.286;2024-01-30T00:00:08;100802.06;;;12.21
15144;BMP180;7672;50.834;6.286;2024-01-30T00:02:35;100812.22;;;12.24
15144;BMP180;7672;50.834;6.286;2024-01-30T00:05:02;100804.69;;;12.27
15144;BMP180;7672;50.834;6.286;2024-01-30T00:07:30;100808.13;;;12.32
15144;BMP180;7672;50.834;6.286;2024-01-30T00:09:57;100802.22;;;12.33
15144;BMP180;7672;50.834;6.286;2024-01-30T00:12:24;100803.13;;;12.36
15144;BMP180;7672;50.834;6.286;2024-01-30T00:14:51;100799.78;;;12.39
15144;BMP180;7672;50.834;6.286;2024-01-30T00:17:21;100808.28;;;12.42
15144;BMP180;7672;50.834;6.286;2024-01-30T00:19:48;100793.09;;;12.44
15144;BMP180;7672;50.834;6.286;2024-01-30T00:22:15;100798.19;;;12.47
15144;BMP180;7672;50.834;6.286;2024-01-30T00:24:42;100792.34;;;12.51
15144;BMP180;7672;50.834;6.286;2024-01-30T00:27:09;100790.72;;;12.56
15144;BMP180;7672;50.834;6.286;2024-01-30T00:29:36;100787.41;;;12.60
15144;BMP180;7672;50.834;6.286;2024-01-30T00:32:03;100787.44;;;12.63
15144;BMP180;7672;50.834;6.286;2024-01-30T00:34:31;100790.88;;;12.68
15144;BMP180;7672;50.834;6.286;2024-01-30T00:36:58;100785.81;;;12.71
15144;BMP180;7672;50.834;6.286;2024-01-30T00:39:25;100788.44;;;12.74
15144;BMP180;7672;50.834;6.286;2024-01-30T00:41:52;100785.06;;;12.76
15144;BMP180;7672;50.834;6.286;2024-01-30T00:44:19;100788.47;;;12.80
15144;BMP180;7672;50.834;6.286;2024-01-30T00:46:46;100786.00;;;12.83
15144;BMP180;7672;50.834;6.286;2024-01-30T00:49:13;100783.47;;;12.84
15144;BMP180;7672;50.834;6.286;2024-01-30T00:51:40;100783.53;;;12.87
15144;BMP180;7672;50.834;6.286;2024-01-30T00:54:07;100776.81;;;12.89
15144;BMP180;7672;50.834;6.286;2024-01-30T00:56:34;100784.44;;;12.92
15144;BMP180;7672;50.834;6.286;2024-01-30T00:59:01;100781.06;;;12.92
15144;BMP180;7672;50.834;6.286;2024-01-30T01:01:28;100773.47;;;12.93
15144;BMP180;7672;50.834;6.286;2024-01-30T01:03:55;100779.38;;;12.94
15144;BMP180;7672;50.834;6.286;2024-01-30T01:06:23;100776.88;;;12.95
15144;BMP180;7672;50.834;6.286;2024-01-30T01:08:50;100772.66;;;12.97
15144;BMP180;7672;50.834;6.286;2024-01-30T01:11:17;100779.44;;;12.97
15144;BMP180;7672;50.834;6.286;2024-01-30T01:13:44;100776.03;;;12.97
15144;BMP180;7672;50.834;6.286;2024-01-30T01:16:11;100775.22;;;13.00
15144;BMP180;7672;50.834;6.286;2024-01-30T01:18:38;100779.47;;;13.02
15144;BMP180;7672;50.834;6.286;2024-01-30T01:21:05;100776.13;;;13.05
15144;BMP180;7672;50.834;6.286;2024-01-30T01:23:32;100777.00;;;13.08
15144;BMP180;7672;50.834;6.286;2024-01-30T01:25:59;100781.25;;;13.09
15144;BMP180;7672;50.834;6.286;2024-01-30T01:28:27;100781.25;;;13.09
15144;BMP180;7672;50.834;6.286;2024-01-30T01:30:55;100782.16;;;13.13
15144;BMP180;7672;50.834;6.286;2024-01-30T01:33:26;100787.25;;;13.14
15144;BMP180;7672;50.834;6.286;2024-01-30T01:35:53;100783.00;;;13.13
15144;BMP180;7672;50.834;6.286;2024-01-30T01:38:20;100781.28;;;13.14
15144;BMP180;7672;50.834;6.286;2024-01-30T01:40:47;100774.56;;;13.14
15144;BMP180;7672;50.834;6.286;2024-01-30T01:43:14;100775.38;;;13.12
15144;BMP180;7672;50.834;6.286;2024-01-30T01:45:41;100775.38;;;13.12
15144;BMP180;7672;50.834;6.286;2024-01-30T01:48:08;100771.09;;;13.09
15144;BMP180;7672;50.834;6.286;2024-01-30T01:50:37;100778.75;;;13.11
15144;BMP180;7672;50.834;6.286;2024-01-30T01:53:07;100778.72;;;13.08
15144;BMP180;7672;50.834;6.286;2024-01-30T01:55:35;100778.72;;;13.06
15144;BMP180;7672;50.834;6.286;2024-01-30T01:58:02;100778.72;;;13.06
15144;BMP180;7672;50.834;6.286;2024-01-30T02:00:30;100781.25;;;13.06
15144;BMP180;7672;50.834;6.286;2024-01-30T02:02:59;100779.53;;;13.07
15144;BMP180;7672;50.834;6.286;2024-01-30T02:05:27;100767.69;;;13.06
15144;BMP180;7672;50.834;6.286;2024-01-30T02:07:54;100775.31;;;13.07
15144;BMP180;7672;50.834;6.286;2024-01-30T02:10:22;100776.16;;;13.06
15144;BMP180;7672;50.834;6.286;2024-01-30T02:12:49;100774.47;;;13.08
15144;BMP180;7672;50.834;6.286;2024-01-30T02:15:17;100778.72;;;13.09
15144;BMP180;7672;50.834;6.286;2024-01-30T02:17:44;100765.19;;;13.09
15144;BMP180;7672;50.834;6.286;2024-01-30T02:20:11;100770.22;;;13.07
15144;BMP180;7672;50.834;6.286;2024-01-30T02:22:41;100759.25;;;13.07
15144;BMP180;7672;50.834;6.286;2024-01-30T02:25:09;100757.53;;;13.07
15144;BMP180;7672;50.834;6.286;2024-01-30T02:27:36;100765.19;;;13.09
15144;BMP180;7672;50.834;6.286;2024-01-30T02:30:04;100766.88;;;13.08
15144;BMP180;7672;50.834;6.286;2024-01-30T02:32:31;100767.75;;;13.10
15144;BMP180;7672;50.834;6.286;2024-01-30T02:34:58;100761.81;;;13.11
15144;BMP180;7672;50.834;6.286;2024-01-30T02:37:25;100760.97;;;13.12
15144;BMP180;7672;50.834;6.286;2024-01-30T02:39:52;100755.91;;;13.12
15144;BMP180;7672;50.834;6.286;2024-01-30T02:42:19;100744.09;;;13.14
15144;BMP180;7672;50.834;6.286;2024-01-30T02:44:46;100739.00;;;13.13
15144;BMP180;7672;50.834;6.286;2024-01-30T02:47:13;100738.13;;;13.12
15144;BMP180;7672;50.834;6.286;2024-01-30T02:49:40;100739.00;;;13.14
15144;BMP180;7672;50.834;6.286;2024-01-30T02:52:07;100744.09;;;13.14
15144;BMP180;7672;50.834;6.286;2024-01-30T02:54:34;100736.47;;;13.13
15144;BMP180;7672;50.834;6.286;2024-01-30T02:57:02;100733.88;;;13.11
15144;BMP180;7672;50.834;6.286;2024-01-30T02:59:29;100727.13;;;13.10
15144;BMP180;7672;50.834;6.286;2024-01-30T03:01:56;100730.50;;;13.09
15144;BMP180;7672;50.834;6.286;2024-01-30T03:04:23;100725.41;;;13.09
15144;BMP180;7672;50.834;6.286;2024-01-30T03:06:50;100727.13;;;13.09
15144;BMP180;7672;50.834;6.286;2024-01-30T03:09:17;100722.88;;;13.08
15144;BMP180;7672;50.834;6.286;2024-01-30T03:11:45;100726.25;;;13.07
15144;BMP180;7672;50.834;6.286;2024-01-30T03:14:12;100722.88;;;13.06
15144;BMP180;7672;50.834;6.286;2024-01-30T03:16:39;100725.41;;;13.06
15144;BMP180;7672;50.834;6.286;2024-01-30T03:19:07;100721.16;;;13.04
15144;BMP180;7672;50.834;6.286;2024-01-30T03:21:36;100738.91;;;13.04
15144;BMP180;7672;50.834;6.286;2024-01-30T03:24:03;100729.59;;;13.04
15144;BMP180;7672;50.834;6.286;2024-01-30T03:26:30;100725.34;;;13.03
15144;BMP180;7672;50.834;6.286;2024-01-30T03:28:57;100729.56;;;13.01
15144;BMP180;7672;50.834;6.286;2024-01-30T03:31:24;100729.53;;;13.00
15144;BMP180;7672;50.834;6.286;2024-01-30T03:33:51;100728.69;;;12.97
15144;BMP180;7672;50.834;6.286;2024-01-30T03:36:19;100724.41;;;12.94
15144;BMP180;7672;50.834;6.286;2024-01-30T03:38:47;100730.31;;;12.92
15144;BMP180;7672;50.834;6.286;2024-01-30T03:41:14;100736.19;;;12.89
15144;BMP180;7672;50.834;6.286;2024-01-30T03:43:41;100736.19;;;12.88
15144;BMP180;7672;50.834;6.286;2024-01-30T03:46:08;100731.91;;;12.85
15144;BMP180;7672;50.834;6.286;2024-01-30T03:48:36;100732.72;;;12.83
15144;BMP180;7672;50.834;6.286;2024-01-30T03:51:03;100731.03;;;12.83
15144;BMP180;7672;50.834;6.286;2024-01-30T03:53:30;100724.22;;;12.82
15144;BMP180;7672;50.834;6.286;2024-01-30T03:55:57;100724.22;;;12.81
15144;BMP180;7672;50.834;6.286;2024-01-30T03:58:24;100726.75;;;12.79
15144;BMP180;7672;50.834;6.286;2024-01-30T04:00:51;100716.59;;;12.78
15144;BMP180;7672;50.834;6.286;2024-01-30T04:03:18;100714.88;;;12.77
15144;BMP180;7672;50.834;6.286;2024-01-30T04:05:45;100725.03;;;12.77
15144;BMP180;7672;50.834;6.286;2024-01-30T04:08:12;100719.06;;;12.75
15144;BMP180;7672;50.834;6.286;2024-01-30T04:10:40;100714.00;;;12.73
15144;BMP180;7672;50.834;6.286;2024-01-30T04:13:07;100721.59;;;12.72
15144;BMP180;7672;50.834;6.286;2024-01-30T04:15:38;100719.03;;;12.72
15144;BMP180;7672;50.834;6.286;2024-01-30T04:18:05;100714.78;;;12.69
15144;BMP180;7672;50.834;6.286;2024-01-30T04:20:32;100714.78;;;12.69
15144;BMP180;7672;50.834;6.286;2024-01-30T04:22:59;100713.13;;;12.70
15144;BMP180;7672;50.834;6.286;2024-01-30T04:25:27;100712.25;;;12.71
15144;BMP180;7672;50.834;6.286;2024-01-30T04:27:54;100709.75;;;12.72
15144;BMP180;7672;50.834;6.286;2024-01-30T04:30:21;100701.31;;;12.75
15144;BMP180;7672;50.834;6.286;2024-01-30T04:32:48;100707.25;;;12.77
15144;BMP180;7672;50.834;6.286;2024-01-30T04:35:15;100704.75;;;12.80
15144;BMP180;7672;50.834;6.286;2024-01-30T04:37:42;100703.09;;;12.82
15144;BMP180;7672;50.834;6.286;2024-01-30T04:40:09;100711.59;;;12.85
15144;BMP180;7672;50.834;6.286;2024-01-30T04:42:37;100704.88;;;12.87
15144;BMP180;7672;50.834;6.286;2024-01-30T04:45:05;100702.38;;;12.90
15144;BMP180;7672;50.834;6.286;2024-01-30T04:47:33;100703.22;;;12.91
15144;BMP180;7672;50.834;6.286;2024-01-30T04:50:01;100703.25;;;12.94
15144;BMP180;7672;50.834;6.286;2024-01-30T04:52:31;100702.41;;;12.95
15144;BMP180;7672;50.834;6.286;2024-01-30T04:54:59;100699.88;;;12.95
15144;BMP180;7672;50.834;6.286;2024-01-30T04:57:26;100699.06;;;12.96
15144;BMP180;7672;50.834;6.286;2024-01-30T04:59:53;100702.44;;;12.97
15144;BMP180;7672;50.834;6.286;2024-01-30T05:02:20;100702.50;;;13.00
15144;BMP180;7672;50.834;6.286;2024-01-30T05:04:47;100696.59;;;13.01
15144;BMP180;7672;50.834;6.286;2024-01-30T05:07:14;100704.22;;;13.04
15144;BMP180;7672;50.834;6.286;2024-01-30T05:09:41;100705.94;;;13.05
15144;BMP180;7672;50.834;6.286;2024-01-30T05:12:08;100699.16;;;13.06
15144;BMP180;7672;50.834;6.286;2024-01-30T05:14:35;100704.28;;;13.09
15144;BMP180;7672;50.834;6.286;2024-01-30T05:17:03;100694.97;;;13.11
15144;BMP180;7672;50.834;6.286;2024-01-30T05:19:30;100695.81;;;13.11
15144;BMP180;7672;50.834;6.286;2024-01-30T05:21:59;100698.38;;;13.13
15144;BMP180;7672;50.834;6.286;2024-01-30T05:24:27;100699.22;;;13.15
15144;BMP180;7672;50.834;6.286;2024-01-30T05:26:54;100699.25;;;13.16
15144;BMP180;7672;50.834;6.286;2024-01-30T05:29:21;100691.63;;;13.16
15144;BMP180;7672;50.834;6.286;2024-01-30T05:31:48;100693.34;;;13.16
15144;BMP180;7672;50.834;6.286;2024-01-30T05:34:16;100685.72;;;13.16
15144;BMP180;7672;50.834;6.286;2024-01-30T05:36:44;100687.41;;;13.15
15144;BMP180;7672;50.834;6.286;2024-01-30T05:39:11;100687.41;;;13.17
15144;BMP180;7672;50.834;6.286;2024-01-30T05:41:38;100684.88;;;13.15
15144;BMP180;7672;50.834;6.286;2024-01-30T05:44:05;100683.16;;;13.14
15144;BMP180;7672;50.834;6.286;2024-01-30T05:46:33;100676.38;;;13.13
15144;BMP180;7672;50.834;6.286;2024-01-30T05:49:00;100673.81;;;13.10
15144;BMP180;7672;50.834;6.286;2024-01-30T05:51:27;100677.19;;;13.06
15144;BMP180;7672;50.834;6.286;2024-01-30T05:53:55;100672.91;;;13.04
15144;BMP180;7672;50.834;6.286;2024-01-30T05:56:23;100666.13;;;13.03
15144;BMP180;7672;50.834;6.286;2024-01-30T05:58:50;100667.81;;;13.02
15144;BMP180;7672;50.834;6.286;2024-01-30T06:01:17;100669.50;;;13.03
15144;BMP180;7672;50.834;6.286;2024-01-30T06:03:45;100666.16;;;13.04
15144;BMP180;7672;50.834;6.286;2024-01-30T06:06:12;100671.25;;;13.07
15144;BMP180;7672;50.834;6.286;2024-01-30T06:08:39;100667.06;;;13.11
15144;BMP180;7672;50.834;6.286;2024-01-30T06:11:09;100675.56;;;13.17
15144;BMP180;7672;50.834;6.286;2024-01-30T06:13:36;100668.84;;;13.21
15144;BMP180;7672;50.834;6.286;2024-01-30T06:16:03;100668.03;;;13.26
15144;BMP180;7672;50.834;6.286;2024-01-30T06:18:31;100674.81;;;13.30
15144;BMP180;7672;50.834;6.286;2024-01-30T06:20:58;100668.97;;;13.34
15144;BMP180;7672;50.834;6.286;2024-01-30T06:23:25;100673.19;;;13.35
15144;BMP180;7672;50.834;6.286;2024-01-30T06:25:52;100672.34;;;13.38
15144;BMP180;7672;50.834;6.286;2024-01-30T06:28:19;100669.00;;;13.40
15144;BMP180;7672;50.834;6.286;2024-01-30T06:30:46;100669.88;;;13.44
15144;BMP180;7672;50.834;6.286;2024-01-30T06:33:13;100662.25;;;13.44
15144;BMP180;7672;50.834;6.286;2024-01-30T06:35:40;100662.25;;;13.44
15144;BMP180;7672;50.834;6.286;2024-01-30T06:38:11;100658.06;;;13.47
15144;BMP180;7672;50.834;6.286;2024-01-30T06:40:38;100659.75;;;13.48
15144;BMP180;7672;50.834;6.286;2024-01-30T06:43:05;100662.31;;;13.50
15144;BMP180;7672;50.834;6.286;2024-01-30T06:45:32;100664.03;;;13.52
15144;BMP180;7672;50.834;6.286;2024-01-30T06:48:00;100663.16;;;13.53
15144;BMP180;7672;50.834;6.286;2024-01-30T06:50:27;100659.78;;;13.56
15144;BMP180;7672;50.834;6.286;2024-01-30T06:52:54;100671.66;;;13.58
15144;BMP180;7672;50.834;6.286;2024-01-30T06:55:22;100661.50;;;13.58
15144;BMP180;7672;50.834;6.286;2024-01-30T06:57:49;100648.84;;;13.59
15144;BMP180;7672;50.834;6.286;2024-01-30T07:00:18;100653.94;;;13.64
15144;BMP180;7672;50.834;6.286;2024-01-30T07:02:46;100649.72;;;13.66
15144;BMP180;7672;50.834;6.286;2024-01-30T07:05:13;100648.03;;;13.66
15144;BMP180;7672;50.834;6.286;2024-01-30T07:07:41;100648.03;;;13.68
15144;BMP180;7672;50.834;6.286;2024-01-30T07:10:08;100644.66;;;13.70
15144;BMP180;7672;50.834;6.286;2024-01-30T07:12:35;100650.63;;;13.72
15144;BMP180;7672;50.834;6.286;2024-01-30T07:15:03;100656.53;;;13.73
15144;BMP180;7672;50.834;6.286;2024-01-30T07:17:30;100663.31;;;13.77
15144;BMP180;7672;50.834;6.286;2024-01-30T07:19:57;100657.41;;;13.78
15144;BMP180;7672;50.834;6.286;2024-01-30T07:22:24;100660.81;;;13.80
15144;BMP180;7672;50.834;6.286;2024-01-30T07:24:51;100668.47;;;13.83
15144;BMP180;7672;50.834;6.286;2024-01-30T07:27:19;100675.25;;;13.87
15144;BMP180;7672;50.834;6.286;2024-01-30T07:29:46;100689.69;;;13.89
15144;BMP180;7672;50.834;6.286;2024-01-30T07:32:13;100679.50;;;13.92
15144;BMP180;7672;50.834;6.286;2024-01-30T07:34:40;100677.84;;;13.94
15144;BMP180;7672;50.834;6.286;2024-01-30T07:37:19;100686.34;;;13.98
15144;BMP180;7672;50.834;6.286;2024-01-30T07:39:47;100688.91;;;14.02
15144;BMP180;7672;50.834;6.286;2024-01-30T07:42:14;100690.66;;;14.08
15144;BMP180;7672;50.834;6.286;2024-01-30T07:44:41;100684.78;;;14.10
15144;BMP180;7672;50.834;6.286;2024-01-30T07:47:08;100685.59;;;14.14
15144;BMP180;7672;50.834;6.286;2024-01-30T07:49:35;100689.03;;;14.19
15144;BMP180;7672;50.834;6.286;2024-01-30T07:52:03;100695.81;;;14.22
15144;BMP180;7672;50.834;6.286;2024-01-30T07:54:30;100700.13;;;14.29
15144;BMP180;7672;50.834;6.286;2024-01-30T07:57:01;100704.38;;;14.33
15144;BMP180;7672;50.834;6.286;2024-01-30T07:59:28;100707.78;;;14.40
15144;BMP180;7672;50.834;6.286;2024-01-30T08:01:54;100698.47;;;14.45
15144;BMP180;7672;50.834;6.286;2024-01-30T08:04:22;100705.28;;;14.50
15144;BMP180;7672;50.834;6.286;2024-01-30T08:06:49;100702.78;;;14.56
15144;BMP180;7672;50.834;6.286;2024-01-30T08:09:16;100708.72;;;14.63
15144;BMP180;7672;50.834;6.286;2024-01-30T08:11:43;100715.53;;;14.67
15144;BMP180;7672;50.834;6.286;2024-01-30T08:14:10;100721.47;;;14.73
15144;BMP180;7672;50.834;6.286;2024-01-30T08:16:37;100735.94;;;14.80
15144;BMP180;7672;50.834;6.286;2024-01-30T08:19:04;100730.00;;;14.85
15144;BMP180;7672;50.834;6.286;2024-01-30T08:21:31;100726.66;;;14.91
15144;BMP180;7672;50.834;6.286;2024-01-30T08:24:06;100741.09;;;14.95
15144;BMP180;7672;50.834;6.286;2024-01-30T08:26:34;100735.16;;;14.99
15144;BMP180;7672;50.834;6.286;2024-01-30T08:29:02;100732.59;;;15.02
15144;BMP180;7672;50.834;6.286;2024-01-30T08:31:29;100738.56;;;15.04
15144;BMP180;7672;50.834;6.286;2024-01-30T08:33:56;100741.09;;;15.07
15144;BMP180;7672;50.834;6.286;2024-01-30T08:36:25;100736.88;;;15.10
15144;BMP180;7672;50.834;6.286;2024-01-30T08:38:52;100747.06;;;15.13
15144;BMP180;7672;50.834;6.286;2024-01-30T08:41:24;100749.63;;;15.18
15144;BMP180;7672;50.834;6.286;2024-01-30T08:43:52;100736.91;;;15.19
15144;BMP180;7672;50.834;6.286;2024-01-30T08:46:19;100740.34;;;15.21
15144;BMP180;7672;50.834;6.286;2024-01-30T08:48:46;100740.34;;;15.26
15144;BMP180;7672;50.834;6.286;2024-01-30T08:51:14;100747.13;;;15.27
15144;BMP180;7672;50.834;6.286;2024-01-30T08:53:42;100754.78;;;15.33
15144;BMP180;7672;50.834;6.286;2024-01-30T08:56:10;100760.72;;;15.35
15144;BMP180;7672;50.834;6.286;2024-01-30T08:58:37;100776.00;;;15.38
15144;BMP180;7672;50.834;6.286;2024-01-30T09:01:04;100768.38;;;15.42
15144;BMP180;7672;50.834;6.286;2024-01-30T09:03:32;100782.00;;;15.44
15144;BMP180;7672;50.834;6.286;2024-01-30T09:05:59;100786.22;;;15.48
15144;BMP180;7672;50.834;6.286;2024-01-30T09:08:26;100773.50;;;15.49
15144;BMP180;7672;50.834;6.286;2024-01-30T09:10:54;100781.13;;;15.54
15144;BMP180;7672;50.834;6.286;2024-01-30T09:13:21;100785.41;;;15.59
15144;BMP180;7672;50.834;6.286;2024-01-30T09:15:48;100782.81;;;15.65
15144;BMP180;7672;50.834;6.286;2024-01-30T09:18:15;100790.50;;;15.71
15144;BMP180;7672;50.834;6.286;2024-01-30T09:20:42;100796.44;;;15.76
15144;BMP180;7672;50.834;6.286;2024-01-30T09:23:09;100801.56;;;15.81
15144;BMP180;7672;50.834;6.286;2024-01-30T09:25:37;100799.84;;;15.84
15144;BMP180;7672;50.834;6.286;2024-01-30T09:28:05;100804.13;;;15.88
15144;BMP180;7672;50.834;6.286;2024-01-30T09:30:32;100806.66;;;15.93
15144;BMP180;7672;50.834;6.286;2024-01-30T09:33:00;100809.22;;;15.99
15144;BMP180;7672;50.834;6.286;2024-01-30T09:35:27;100813.44;;;16.04
15144;BMP180;7672;50.834;6.286;2024-01-30T09:37:54;100812.59;;;16.09
15144;BMP180;7672;50.834;6.286;2024-01-30T09:40:21;100818.56;;;16.16
15144;BMP180;7672;50.834;6.286;2024-01-30T09:42:50;100816.84;;;16.24
15144;BMP180;7672;50.834;6.286;2024-01-30T09:45:18;100811.75;;;16.31
15144;BMP180;7672;50.834;6.286;2024-01-30T09:47:48;100810.03;;;16.39
15144;BMP180;7672;50.834;6.286;2024-01-30T09:50:16;100819.38;;;16.49
15144;BMP180;7672;50.834;6.286;2024-01-30T09:52:47;100819.34;;;16.60
15144;BMP180;7672;50.834;6.286;2024-01-30T09:55:14;100815.06;;;16.68
15144;BMP180;7672;50.834;6.286;2024-01-30T09:57:42;100811.66;;;16.74
15144;BMP180;7672;50.834;6.286;2024-01-30T10:00:10;100806.50;;;16.79
15144;BMP180;7672;50.834;6.286;2024-01-30T10:02:39;100809.06;;;16.82
15144;BMP180;7672;50.834;6.286;2024-01-30T10:05:08;100816.72;;;16.83
15144;BMP180;7672;50.834;6.286;2024-01-30T10:07:35;100815.88;;;16.86
15144;BMP180;7672;50.834;6.286;2024-01-30T10:10:05;100801.38;;;16.91
15144;BMP180;7672;50.834;6.286;2024-01-30T10:12:32;100816.66;;;16.95
15144;BMP180;7672;50.834;6.286;2024-01-30T10:14:59;100813.22;;;16.99
15144;BMP180;7672;50.834;6.286;2024-01-30T10:17:26;100809.84;;;17.03
15144;BMP180;7672;50.834;6.286;2024-01-30T10:20:00;100813.22;;;17.05
15144;BMP180;7672;50.834;6.286;2024-01-30T10:22:31;100815.75;;;17.07
15144;BMP180;7672;50.834;6.286;2024-01-30T10:25:00;100818.31;;;17.10
15144;BMP180;7672;50.834;6.286;2024-01-30T10:27:32;100814.06;;;17.09
15144;BMP180;7672;50.834;6.286;2024-01-30T10:29:59;100817.47;;;17.06
15144;BMP180;7672;50.834;6.286;2024-01-30T10:32:27;100821.72;;;17.04
15144;BMP180;7672;50.834;6.286;2024-01-30T10:34:54;100819.22;;;17.00
15144;BMP180;7672;50.834;6.286;2024-01-30T10:37:25;100830.28;;;16.99
15144;BMP180;7672;50.834;6.286;2024-01-30T10:39:54;100827.72;;;16.97
15144;BMP180;7672;50.834;6.286;2024-01-30T10:42:26;100832.84;;;16.97
15144;BMP180;7672;50.834;6.286;2024-01-30T10:45:06;100824.34;;;16.98
15144;BMP180;7672;50.834;6.286;2024-01-30T10:47:37;100817.50;;;17.00
15144;BMP180;7672;50.834;6.286;2024-01-30T10:50:05;100824.28;;;17.04
15144;BMP180;7672;50.834;6.286;2024-01-30T10:52:33;100818.34;;;17.08
15144;BMP180;7672;50.834;6.286;2024-01-30T10:55:03;100825.94;;;17.16
15144;BMP180;7672;50.834;6.286;2024-01-30T10:57:34;100828.44;;;17.23
15144;BMP180;7672;50.834;6.286;2024-01-30T11:00:07;100814.84;;;17.27
15144;BMP180;7672;50.834;6.286;2024-01-30T11:02:46;100824.22;;;17.25
15144;BMP180;7672;50.834;6.286;2024-01-30T11:05:14;100831.88;;;17.28
15144;BMP180;7672;50.834;6.286;2024-01-30T11:07:42;100826.72;;;17.34
15144;BMP180;7672;50.834;6.286;2024-01-30T11:10:12;100816.47;;;17.41
15144;BMP180;7672;50.834;6.286;2024-01-30T11:12:42;100818.13;;;17.47
15144;BMP180;7672;50.834;6.286;2024-01-30T11:15:14;100807.06;;;17.48
15144;BMP180;7672;50.834;6.286;2024-01-30T11:20:22;100824.97;;;17.45
15144;BMP180;7672;50.834;6.286;2024-01-30T11:22:55;100815.63;;;17.42
15144;BMP180;7672;50.834;6.286;2024-01-30T11:25:24;100792.59;;;17.41
15144;BMP180;7672;50.834;6.286;2024-01-30T11:27:54;100798.59;;;17.37
15144;BMP180;7672;50.834;6.286;2024-01-30T11:30:26;100799.50;;;17.30
15144;BMP180;7672;50.834;6.286;2024-01-30T11:33:10;100810.56;;;17.31
15144;BMP180;7672;50.834;6.286;2024-01-30T11:35:45;100813.97;;;17.33
15144;BMP180;7672;50.834;6.286;2024-01-30T11:38:15;100817.34;;;17.39
15144;BMP180;7672;50.834;6.286;2024-01-30T11:40:44;100816.44;;;17.47
15144;BMP180;7672;50.834;6.286;2024-01-30T11:43:11;100809.56;;;17.57
15144;BMP180;7672;50.834;6.286;2024-01-30T11:45:39;100807.75;;;17.69
15144;BMP180;7672;50.834;6.286;2024-01-30T11:48:07;100814.47;;;17.82
15144;BMP180;7672;50.834;6.286;2024-01-30T11:50:39;100816.97;;;17.90
15144;BMP180;7672;50.834;6.286;2024-01-30T11:53:07;100824.63;;;17.93
15144;BMP180;7672;50.834;6.286;2024-01-30T11:55:34;100819.53;;;17.91
15144;BMP180;7672;50.834;6.286;2024-01-30T11:58:04;100824.69;;;17.87
15144;BMP180;7672;50.834;6.286;2024-01-30T12:00:31;100818.69;;;17.88
15144;BMP180;7672;50.834;6.286;2024-01-30T12:03:00;100809.34;;;17.87
15144;BMP180;7672;50.834;6.286;2024-01-30T12:05:29;100817.88;;;17.83
15144;BMP180;7672;50.834;6.286;2024-01-30T12:07:56;100821.31;;;17.79
15144;BMP180;7672;50.834;6.286;2024-01-30T12:10:27;100811.13;;;17.76
15144;BMP180;7672;50.834;6.286;2024-01-30T12:12:56;100813.69;;;17.71
15144;BMP180;7672;50.834;6.286;2024-01-30T12:15:24;100820.56;;;17.65
15144;BMP180;7672;50.834;6.286;2024-01-30T12:17:51;100824.03;;;17.59
15144;BMP180;7672;50.834;6.286;2024-01-30T12:20:19;100823.19;;;17.56
15144;BMP180;7672;50.834;6.286;2024-01-30T12:22:49;100824.06;;;17.52
15144;BMP180;7672;50.834;6.286;2024-01-30T12:25:18;100818.97;;;17.49
15144;BMP180;7672;50.834;6.286;2024-01-30T12:27:49;100818.97;;;17.46
15144;BMP180;7672;50.834;6.286;2024-01-30T12:30:20;100836.06;;;17.41
15144;BMP180;7672;50.834;6.286;2024-01-30T12:32:52;100824.13;;;17.38
15144;BMP180;7672;50.834;6.286;2024-01-30T12:35:20;100828.44;;;17.32
15144;BMP180;7672;50.834;6.286;2024-01-30T12:37:49;100826.75;;;17.28
15144;BMP180;7672;50.834;6.286;2024-01-30T12:40:17;100837.81;;;17.24
15144;BMP180;7672;50.834;6.286;2024-01-30T12:42:47;100834.47;;;17.16
15144;BMP180;7672;50.834;6.286;2024-01-30T12:45:16;100835.34;;;17.09
15144;BMP180;7672;50.834;6.286;2024-01-30T12:47:47;100838.78;;;17.02
15144;BMP180;7672;50.834;6.286;2024-01-30T12:50:15;100842.22;;;16.97
15144;BMP180;7672;50.834;6.286;2024-01-30T12:52:45;100834.56;;;16.92
15144;BMP180;7672;50.834;6.286;2024-01-30T12:55:16;100837.97;;;16.88
15144;BMP180;7672;50.834;6.286;2024-01-30T12:57:44;100829.47;;;16.86
15144;BMP180;7672;50.834;6.286;2024-01-30T13:00:11;100838.84;;;16.87
15144;BMP180;7672;50.834;6.286;2024-01-30T13:02:38;100847.34;;;16.85
15144;BMP180;7672;50.834;6.286;2024-01-30T13:05:05;100845.63;;;16.85
15144;BMP180;7672;50.834;6.286;2024-01-30T13:07:33;100835.44;;;16.87
15144;BMP180;7672;50.834;6.286;2024-01-30T13:10:01;100847.34;;;16.86
15144;BMP180;7672;50.834;6.286;2024-01-30T13:12:30;100852.44;;;16.86
15144;BMP180;7672;50.834;6.286;2024-01-30T13:14:59;100859.25;;;16.89
15144;BMP180;7672;50.834;6.286;2024-01-30T13:17:32;100860.13;;;16.89
15144;BMP180;7672;50.834;6.286;2024-01-30T13:19:59;100858.41;;;16.90
15144;BMP180;7672;50.834;6.286;2024-01-30T13:22:37;100859.28;;;16.86
15144;BMP180;7672;50.834;6.286;2024-01-30T13:25:06;100865.22;;;16.85
15144;BMP180;7672;50.834;6.286;2024-01-30T13:27:34;100861.84;;;16.83
15144;BMP180;7672;50.834;6.286;2024-01-30T13:30:01;100866.09;;;16.76
15144;BMP180;7672;50.834;6.286;2024-01-30T13:32:28;100867.81;;;16.73
15144;BMP180;7672;50.834;6.286;2024-01-30T13:34:55;100868.69;;;16.69
15144;BMP180;7672;50.834;6.286;2024-01-30T13:37:23;100870.41;;;16.66
15144;BMP180;7672;50.834;6.286;2024-01-30T13:39:50;100870.41;;;16.60
15144;BMP180;7672;50.834;6.286;2024-01-30T13:42:17;100887.41;;;16.56
15144;BMP180;7672;50.834;6.286;2024-01-30T13:44:44;100881.47;;;16.51
15144;BMP180;7672;50.834;6.286;2024-01-30T13:47:11;100879.75;;;16.49
15144;BMP180;7672;50.834;6.286;2024-01-30T13:49:38;100880.63;;;16.45
15144;BMP180;7672;50.834;6.286;2024-01-30T13:52:05;100877.25;;;16.41
15144;BMP180;7672;50.834;6.286;2024-01-30T13:54:32;100878.94;;;16.38
15144;BMP180;7672;50.834;6.286;2024-01-30T13:57:00;100873.00;;;16.33
15144;BMP180;7672;50.834;6.286;2024-01-30T13:59:27;100889.16;;;16.32
15144;BMP180;7672;50.834;6.286;2024-01-30T14:01:54;100878.09;;;16.28
15144;BMP180;7672;50.834;6.286;2024-01-30T14:04:21;100879.78;;;16.28
15144;BMP180;7672;50.834;6.286;2024-01-30T14:06:49;100886.56;;;16.24
15144;BMP180;7672;50.834;6.286;2024-01-30T14:09:26;100881.47;;;16.26
15144;BMP180;7672;50.834;6.286;2024-01-30T14:11:53;100876.34;;;16.23
15144;BMP180;7672;50.834;6.286;2024-01-30T14:14:20;100869.56;;;16.19